• Join FlightAware (Why Join?)
  • Login
  • US Flag 
06:22AM EST


 

Airport Tracker/Info


-or-


 

Live Flight TrackerFlight Track Log ✈ AAL1326 ✈ 22-Oct-2013 ✈ KTUL - KORD

Flight Track Log - Related Links

Times and Time Zones

All times are in EDT time to prevent confusion due to time zone crossing. See the AAL1326 flight status page for this flight to view local times or setup timezone preferences in your user account.

Time Position Orientation Groundspeed Altitude Reporting Facility
EDT Latitude Longitude Course Direction KTS MPH feet Rate Location/Type
09:55AM 36.1500 -95.8640 136° Southeast 227 261 2,400  Level FlightAware
09:56AM 36.1430 -95.8480 118° Southeast 255 293 2,700 1,500 Climbing FlightAware
09:56AM 36.1420 -95.8380 97° East 271 312 2,900 2,000 Climbing FlightAware
09:56AM 36.1410 -95.8320 102° East 275 316 3,000 2,800 Climbing FlightAware
09:56AM 36.1510 -95.7970 71° East 275 316 4,300 3,130 Climbing FlightAware
09:57AM 36.1660 -95.7690 56° Northeast 280 322 5,400 3,200 Climbing FlightAware
09:57AM 36.1730 -95.7560 56° Northeast 285 328 5,900 3,600 Climbing FlightAware
09:57AM 36.1920 -95.7180 58° Northeast 293 337 7,500 3,733 Climbing FlightAware
09:57AM 36.2060 -95.6890 59° Northeast 298 343 8,700 3,491 Climbing FlightAware
09:58AM 36.2310 -95.6400 58° Northeast 306 352 10,700 2,914 Climbing FlightAware
09:59AM 36.2600 -95.5830 58° Northeast 342 394 12,100 2,657 Climbing FlightAware
09:59AM 36.2920 -95.5200 58° Northeast 372 428 13,800 3,000 Climbing FlightAware
10:00AM 36.3240 -95.4560 58° Northeast 390 449 15,600 3,120 Climbing FlightAware
10:00AM 36.3610 -95.3810 58° Northeast 405 466 17,700 3,514 Climbing FlightAware
10:01AM 36.3910 -95.3210 58° Northeast 407 468 19,700 3,600 Climbing FlightAware
10:02AM 36.4270 -95.2500 58° Northeast 414 476 21,600 2,514 Climbing FlightAware
10:02AM 36.4670 -95.1690 58° Northeast 423 487 22,800 2,057 Climbing FlightAware
10:03AM 36.4980 -95.1070 58° Northeast 432 497 24,000 2,308 Climbing FlightAware
10:03AM 36.5370 -95.0290 58° Northeast 448 516 25,300 2,057 Climbing FlightAware
10:04AM 36.5750 -94.9530 58° Northeast 460 529 26,400 1,944 Climbing FlightAware
10:04AM 36.6130 -94.8750 59° Northeast 470 541 27,600 2,000 Climbing FlightAware
10:05AM 36.6540 -94.7930 58° Northeast 480 552 28,700 1,944 Climbing FlightAware
10:06AM 36.6960 -94.7080 58° Northeast 490 564 29,900 1,971 Climbing FlightAware
10:06AM 36.7370 -94.6230 59° Northeast 494 568 31,000 2,174 Climbing FlightAware
10:07AM 36.7820 -94.5310 59° Northeast 493 567 32,400 1,971 Climbing FlightAware
10:07AM 36.8220 -94.4480 59° Northeast 498 573 33,300 1,479 Climbing FlightAware
10:08AM 36.8680 -94.3540 59° Northeast 506 582 34,200 1,500 Climbing FlightAware
10:09AM 36.9100 -94.2670 59° Northeast 509 586 35,100 1,521 Climbing FlightAware
10:09AM 36.9560 -94.1720 59° Northeast 513 590 36,000 1,147 Climbing FlightAware
10:10AM 36.9930 -94.0960 59° Northeast 513 590 36,400 1,412 Climbing FlightAware
10:10AM 37.0390 -94.0000 59° Northeast 508 585 37,600 1,187 Climbing FlightAware
10:11AM 37.0980 -93.8770 59° Northeast 504 580 38,200 1,364 Climbing FlightAware
10:12AM 37.1400 -93.7900 59° Northeast 501 577 39,600 1,676 Climbing FlightAware
10:12AM 37.1830 -93.6990 59° Northeast 505 581 40,100 844 Climbing FlightAware
10:13AM 37.2210 -93.6200 59° Northeast 510 587 40,500 771 Climbing FlightAware
10:14AM 37.2640 -93.5290 59° Northeast 511 588 41,000 405 Climbing FlightAware
10:14AM 37.3110 -93.4320 59° Northeast 501 577 41,000  Level FlightAware
10:15AM 37.3570 -93.3450 56° Northeast 494 568 41,000  Level FlightAware
10:15AM 37.3950 -93.2990 44° Northeast 484 557 41,000  Level FlightAware
10:16AM 37.4600 -93.2390 36° Northeast 481 554 41,000  Level FlightAware
10:16AM 37.5240 -93.1790 37° Northeast 481 554 41,000  Level FlightAware
10:17AM 37.5860 -93.1220 36° Northeast 480 552 41,000  Level FlightAware
10:17AM 37.6460 -93.0670 36° Northeast 481 554 41,000  Level FlightAware
10:18AM 37.7180 -92.9990 37° Northeast 480 552 41,000  Level FlightAware
10:19AM 37.7750 -92.9470 36° Northeast 482 555 41,000  Level FlightAware
10:19AM 37.8410 -92.8850 37° Northeast 484 557 41,000  Level FlightAware
10:20AM 37.9040 -92.8260 36° Northeast 485 558 41,000  Level FlightAware
10:21AM 37.9740 -92.7600 37° Northeast 486 559 41,000  Level FlightAware
10:21AM 38.0400 -92.6980 36° Northeast 486 559 41,000  Level FlightAware
10:22AM 38.1150 -92.6270 37° Northeast 487 560 41,000  Level FlightAware
10:22AM 38.1720 -92.5740 36° Northeast 488 562 41,000  Level FlightAware
10:23AM 38.2450 -92.5050 37° Northeast 489 563 41,000  Level FlightAware
10:24AM 38.3000 -92.4530 37° Northeast 491 565 41,000  Level FlightAware
10:24AM 38.3650 -92.3910 37° Northeast 490 564 41,000  Level FlightAware
10:25AM 38.4390 -92.3200 37° Northeast 492 566 41,000  Level FlightAware
10:25AM 38.4920 -92.2690 37° Northeast 494 568 41,000  Level FlightAware
10:26AM 38.5630 -92.2010 37° Northeast 494 568 41,000  Level FlightAware
10:26AM 38.6230 -92.1430 37° Northeast 495 570 41,000  Level FlightAware
10:27AM 38.7100 -92.0590 37° Northeast 495 570 41,000  Level FlightAware
10:28AM 38.7740 -91.9980 37° Northeast 492 566 41,000  Level FlightAware
10:29AM 38.8830 -91.8920 37° Northeast 491 565 41,000  Level FlightAware
10:29AM 38.9460 -91.8310 37° Northeast 491 565 41,000  Level FlightAware
10:30AM 39.0030 -91.7710 39° Northeast 496 571 41,000  Level FlightAware
10:31AM 39.0480 -91.7160 43° Northeast 497 572 41,000  Level FlightAware
10:31AM 39.1000 -91.6510 44° Northeast 497 572 41,000  Level FlightAware
10:32AM 39.1550 -91.5830 44° Northeast 497 572 41,000  Level FlightAware
10:32AM 39.2070 -91.5180 44° Northeast 497 572 41,000  Level FlightAware
10:33AM 39.2550 -91.4580 44° Northeast 497 572 41,000  Level FlightAware
10:34AM 39.3050 -91.3950 44° Northeast 497 572 41,000  Level FlightAware
10:34AM 39.3530 -91.3350 44° Northeast 497 572 41,000  Level FlightAware
10:35AM 39.4080 -91.2670 44° Northeast 497 572 41,000  Level FlightAware
10:35AM 39.4600 -91.2020 44° Northeast 497 572 41,000  Level FlightAware
10:36AM 39.5110 -91.1380 44° Northeast 497 572 41,000  Level FlightAware
10:37AM 39.5950 -90.8480 69° East 503 579 41,000  Level FlightAware
10:38AM 39.5940 -90.8500 237° Southwest 503 579 41,000 -366 Level FlightAware
10:38AM 39.6740 -90.7200 51° Northeast 506 582 40,500 -1,378 Descending FlightAware
10:39AM 39.7840 -90.5430 51° Northeast 510 587 39,300 -1,360 Descending FlightAware
10:39AM 39.8330 -90.4640 51° Northeast 516 594 38,800 -1,652 Descending FlightAware
10:40AM 39.8860 -90.3770 52° Northeast 513 590 37,400 -2,647 Descending FlightAware
10:40AM 39.9350 -90.2980 51° Northeast 512 589 35,800 -2,118 Descending FlightAware
10:41AM 39.9930 -90.2210 45° Northeast 504 580 35,000 -676 Descending FlightAware
10:42AM 40.0460 -90.1620 40° Northeast 504 580 35,000  Level FlightAware
10:42AM 40.1160 -90.0820 41° Northeast 504 580 35,000  Level FlightAware
10:43AM 40.1720 -90.0200 40° Northeast 505 581 35,000 -171 Level FlightAware
10:43AM 40.2390 -89.9440 41° Northeast 503 579 34,800 -943 Descending FlightAware
10:44AM 40.3000 -89.8740 41° Northeast 498 573 33,900 -1,479 Descending FlightAware
10:45AM 40.3630 -89.8030 41° Northeast 496 571 33,000 -1,750 Descending FlightAware
10:45AM 40.4250 -89.7330 41° Northeast 493 567 31,800 -2,507 Descending FlightAware
10:46AM 40.4760 -89.6740 41° Northeast 493 567 30,200 -2,955 Descending FlightAware
10:46AM 40.5400 -89.6000 41° Northeast 485 558 28,500 -2,750 Descending FlightAware
10:47AM 40.6030 -89.5280 41° Northeast 470 541 26,900 -2,500 Descending FlightAware
10:48AM 40.6600 -89.4640 40° Northeast 457 526 25,500 -2,328 Descending FlightAware
10:48AM 40.7100 -89.4060 41° Northeast 446 513 24,300 -1,268 Descending FlightAware
10:49AM 40.7700 -89.3360 41° Northeast 439 505 24,000 -254 Descending FlightAware
10:49AM 40.8210 -89.2760 42° Northeast 465 535 24,000 -1,147 Level FlightAware
10:50AM 40.8750 -89.2100 43° Northeast 461 531 22,700 -2,348 Descending FlightAware
10:50AM 40.9290 -89.1450 42° Northeast 445 512 21,300 -2,451 Descending FlightAware
10:51AM 40.9850 -89.0780 42° Northeast 434 499 19,800 -2,471 Descending FlightAware
10:52AM 41.0290 -89.0250 42° Northeast 425 489 18,500 -2,364 Descending FlightAware
10:52AM 41.0780 -88.9660 42° Northeast 413 475 17,200 -2,351 Descending FlightAware
10:53AM 41.1330 -88.9000 42° Northeast 403 464 15,600 -2,368 Descending FlightAware
10:53AM 41.1810 -88.8420 42° Northeast 396 456 14,200 -2,261 Descending FlightAware
10:54AM 41.2280 -88.7850 42° Northeast 385 443 13,000 -2,031 Descending FlightAware
10:54AM 41.2690 -88.7350 43° Northeast 372 428 12,000 -1,676 Descending FlightAware
10:55AM 41.3120 -88.6840 42° Northeast 368 423 11,100 -892 Descending FlightAware
10:56AM 41.3590 -88.6260 43° Northeast 363 418 10,900 -169 Descending FlightAware
10:56AM 41.4020 -88.5740 42° Northeast 365 420 10,900  Level FlightAware
10:57AM 41.4440 -88.5240 42° Northeast 364 419 10,900  Level FlightAware
10:57AM 41.4900 -88.4700 41° Northeast 363 418 10,900  Level FlightAware
10:58AM 41.5380 -88.4120 42° Northeast 346 398 10,900  Level FlightAware
10:59AM 41.5740 -88.3690 42° Northeast 335 386 10,900  Level FlightAware
10:59AM 41.6120 -88.3240 42° Northeast 312 359 10,900  Level FlightAware
11:00AM 41.6480 -88.2820 41° Northeast 309 356 10,900 87 Level FlightAware
11:00AM 41.6880 -88.2340 42° Northeast 308 354 11,000 -417 Climbing FlightAware
11:01AM 41.7270 -88.1880 41° Northeast 308 354 10,400 -1,158 Descending FlightAware
11:01AM 41.7480 -88.1630 42° Northeast 305 351 9,900 -1,371 Descending FlightAware
11:02AM 41.7640 -88.1430 43° Northeast 302 348 9,600 -1,167 Descending FlightAware
11:02AM 41.7820 -88.1210 42° Northeast 296 341 9,200 -1,459 Descending FlightAware
11:02AM 41.8010 -88.0990 41° Northeast 296 341 8,700 -1,571 Descending FlightAware
11:03AM 41.8260 -88.0660 45° Northeast 293 337 8,100 -1,021 Descending FlightAware
11:03AM 41.8460 -88.0400 44° Northeast 285 328 7,900 -293 Descending FlightAware
11:03AM 41.8640 -88.0150 46° Northeast 282 325 7,900  Level FlightAware
11:03AM 41.8760 -87.9970 48° Northeast 279 321 7,900  Level FlightAware
11:04AM 41.8800 -87.9880 59° Northeast 275 316 7,900  Level FlightAware
11:04AM 41.8820 -87.9770 76° East 270 311 7,900  Level FlightAware
11:04AM 41.8840 -87.9670 75° East 264 304 7,900  Level FlightAware
11:04AM 41.8840 -87.9560 90° East 260 299 7,900 -667 Level FlightAware
11:04AM 41.8840 -87.9240 90° East 249 287 7,600 -1,034 Descending FlightAware
11:05AM 41.8840 -87.8700 90° East 251 289 6,900 -712 Descending FlightAware
11:05AM 41.8840 -87.8390 90° East 247 284 6,900  Level FlightAware
11:06AM 41.8840 -87.8080 90° East 248 285 6,900 -837 Level FlightAware
11:06AM 41.8840 -87.7670 90° East 243 280 6,300 -1,500 Descending FlightAware
11:06AM 41.8840 -87.7510 90° East 244 281 6,000 -1,532 Descending FlightAware
11:07AM 41.8840 -87.6930 90° East 242 278 5,100 -1,182 Descending FlightAware
11:07AM 41.8910 -87.6540 76° East 224 258 4,700 -833 Descending FlightAware
11:07AM 41.8980 -87.6480 33° Northeast 213 245 4,600 -1,000 Descending FlightAware
11:07AM 41.9010 -87.6470 14° North 207 238 4,500 -923 Descending FlightAware
11:08AM 41.9080 -87.6450 12° North 202 232 4,400 -1,116 Descending FlightAware
11:08AM 41.9360 -87.6580 341° North 180 207 3,700 -1,071 Descending FlightAware
11:08AM 41.9440 -87.6790 297° West 177 204 3,400 -818 Descending FlightAware
11:09AM 41.9520 -87.7000 297° West 175 201 3,100 -686 Descending FlightAware
11:09AM 41.9560 -87.7130 292° West 172 198 3,000 -667 Descending FlightAware
11:09AM 41.9640 -87.7380 293° West 170 196 2,700 -545 Descending FlightAware
11:10AM 41.9660 -87.7590 277° West 166 191 2,600 -529 Descending FlightAware
11:10AM 41.9660 -87.7710 270° West 157 181 2,400 -500 Descending FlightAware
11:11AM 41.9660 -87.8110 270° West 147 169 2,100 -676 Descending FlightAware
11:11AM 41.9660 -87.8260 270° West 131 151 1,600 -980 Descending FlightAware
11:12AM 41.9660 -87.8490 270° West 128 147 1,300 -783 Descending FlightAware
11:12AM 41.9660 -87.8690 270° West 127 146 1,000 -766 Descending FlightAware
11:12AM 41.9660 -87.8890 270° West 126 145 700 -360 Descending FlightAware
11:13AM 41.9660 -87.9050 270° West 126 145 700  Level FlightAware